Time;durP1;ratioP1;P1;durP2;ratioP2;P2;SDS_P1;SDS_P2;PMS_P1;PMS_P2;Temp;Humidity;BMP_temperature;BMP_pressure;BME280_temperature;BME280_humidity;BME280_pressure;Samples;Min_cycle;Max_cycle;Signal;HPM_P1;HPM_P2
2022/11/08 00:01:43;;;;;;;8.45;2.25;;;14.30;99.90;;;;;;2068216;28;20034;-72
2022/11/08 00:02:43;;;;;;;8.30;2.65;;;14.30;99.90;;;;;;2072749;28;20026;-71
2022/11/08 00:03:44;;;;;;;7.35;2.35;;;14.30;99.90;;;;;;2070733;28;20018;-71
2022/11/08 00:04:45;;;;;;;7.68;2.53;;;14.30;99.90;;;;;;2071336;28;20060;-71
2022/11/08 00:13:56;;;;;;;5.93;2.65;;;14.20;99.90;;;;;;2070784;28;20915;-72
2022/11/08 00:14:56;;;;;;;11.75;2.92;;;14.20;99.90;;;;;;2068444;28;20026;-72
2022/11/08 00:16:00;;;;;;;9.15;2.70;;;14.20;99.90;;;;;;2069811;28;20092;-72
2022/11/08 00:17:00;;;;;;;9.85;2.22;;;14.20;99.90;;;;;;2069933;28;20048;-72
2022/11/08 00:18:01;;;;;;;9.52;2.75;;;14.20;99.90;;;;;;2069614;28;20037;-72
2022/11/08 00:19:01;;;;;;;10.65;2.65;;;14.20;99.90;;;;;;2070064;28;20026;-72
2022/11/08 00:20:03;;;;;;;6.60;2.50;;;14.20;99.90;;;;;;2070190;28;20184;-71
2022/11/08 00:21:03;;;;;;;6.75;2.33;;;14.20;99.90;;;;;;2069603;28;20080;-71
2022/11/08 00:22:04;;;;;;;7.88;2.53;;;14.20;99.90;;;;;;2070207;28;20029;-71
2022/11/08 00:23:06;;;;;;;9.32;3.15;;;14.20;99.90;;;;;;2069870;28;20050;-71
2022/11/08 00:24:06;;;;;;;8.18;2.95;;;14.20;99.90;;;;;;2070224;28;20037;-71
2022/11/08 00:25:08;;;;;;;5.90;2.15;;;14.20;99.90;;;;;;2068601;28;20058;-71
2022/11/08 00:26:09;;;;;;;7.57;2.15;;;14.20;99.90;;;;;;2070033;28;20040;-71
2022/11/08 00:27:15;;;;;;;6.30;2.45;;;14.20;99.90;;;;;;2069381;28;20037;-71
2022/11/08 00:28:16;;;;;;;10.98;2.55;;;14.20;99.90;;;;;;2068854;28;20057;-71
2022/11/08 00:29:16;;;;;;;7.35;2.25;;;14.20;99.90;;;;;;2071223;28;20623;-71
2022/11/08 00:30:17;;;;;;;5.72;2.40;;;14.10;99.90;;;;;;2068953;28;20030;-71
2022/11/08 00:31:18;;;;;;;7.88;2.95;;;14.10;99.90;;;;;;2070313;28;20060;-71
2022/11/08 00:32:21;;;;;;;7.75;2.45;;;14.10;99.90;;;;;;2072005;28;20093;-71
2022/11/08 00:33:21;;;;;;;5.57;2.17;;;14.10;99.90;;;;;;2067893;28;20034;-71
2022/11/08 00:34:22;;;;;;;4.78;2.08;;;14.10;99.90;;;;;;2070628;28;20028;-71
2022/11/08 00:35:22;;;;;;;6.93;2.60;;;14.10;99.90;;;;;;2069443;28;20038;-71
2022/11/08 00:36:23;;;;;;;7.03;2.35;;;14.10;99.90;;;;;;2071400;28;20465;-71
2022/11/08 00:37:23;;;;;;;7.10;2.83;;;14.00;99.90;;;;;;2063647;28;20443;-71
2022/11/08 00:38:24;;;;;;;6.38;2.60;;;14.00;99.90;;;;;;2069488;28;20740;-71
2022/11/08 00:39:25;;;;;;;10.52;3.17;;;14.00;99.90;;;;;;2072925;28;20137;-71
2022/11/08 00:40:25;;;;;;;8.55;2.55;;;14.10;99.90;;;;;;2070540;28;20025;-71
2022/11/08 00:41:26;;;;;;;8.98;2.50;;;14.00;99.90;;;;;;2069090;28;20029;-71
2022/11/08 00:42:26;;;;;;;6.30;2.22;;;14.00;99.90;;;;;;2070697;28;20025;-71
2022/11/08 00:43:27;;;;;;;6.22;2.30;;;14.00;99.90;;;;;;2071635;28;20033;-71
2022/11/08 00:44:27;;;;;;;8.68;2.60;;;14.00;99.90;;;;;;2071278;28;20040;-72
2022/11/08 00:45:28;;;;;;;10.77;2.92;;;14.00;99.90;;;;;;2071164;28;20056;-72
2022/11/08 00:46:28;;;;;;;5.75;2.63;;;14.00;99.90;;;;;;2070592;28;20030;-72
2022/11/08 00:47:29;;;;;;;9.65;2.65;;;14.00;99.90;;;;;;2071178;28;20053;-71
2022/11/08 00:48:29;;;;;;;4.55;2.08;;;13.90;99.90;;;;;;2068811;28;20466;-71
2022/11/08 00:49:30;;;;;;;10.77;2.67;;;13.90;99.90;;;;;;2069128;28;20084;-71
2022/11/08 00:50:31;;;;;;;10.00;2.85;;;13.90;99.90;;;;;;2071361;28;20689;-71
2022/11/08 00:51:31;;;;;;;10.05;2.90;;;14.00;99.90;;;;;;2072320;28;20037;-71
2022/11/08 00:52:32;;;;;;;6.28;2.67;;;13.90;99.90;;;;;;2073392;28;20100;-71
2022/11/08 00:53:35;;;;;;;7.78;2.38;;;14.00;99.90;;;;;;2073130;28;20105;-71
2022/11/08 00:54:35;;;;;;;7.22;2.35;;;13.90;99.90;;;;;;2070355;28;20113;-72
2022/11/08 00:55:36;;;;;;;7.57;2.55;;;13.90;99.90;;;;;;2070524;28;20035;-72
2022/11/08 00:56:36;;;;;;;10.25;2.67;;;13.90;99.90;;;;;;2068589;28;20029;-72
2022/11/08 00:57:37;;;;;;;7.18;2.47;;;13.90;99.90;;;;;;2070799;28;20080;-72
2022/11/08 00:58:38;;;;;;;5.15;2.40;;;13.90;99.90;;;;;;2071842;28;20057;-71
2022/11/08 00:59:38;;;;;;;6.35;2.30;;;13.90;99.90;;;;;;2071438;28;20033;-71
2022/11/08 01:00:39;;;;;;;7.68;2.92;;;14.00;99.90;;;;;;2071751;28;20394;-71
2022/11/08 01:01:40;;;;;;;3.80;2.03;;;14.00;99.90;;;;;;2071757;28;20105;-72
2022/11/08 01:02:40;;;;;;;8.77;2.67;;;14.00;99.90;;;;;;2070025;28;20014;-72
2022/11/08 01:03:42;;;;;;;8.60;2.40;;;14.00;99.90;;;;;;2071289;28;20061;-72
2022/11/08 01:04:42;;;;;;;4.85;2.20;;;14.00;99.90;;;;;;2069571;28;20022;-72
2022/11/08 01:05:43;;;;;;;4.57;1.85;;;14.00;99.90;;;;;;2068299;28;20112;-71
2022/11/08 01:06:44;;;;;;;8.75;2.20;;;14.00;99.90;;;;;;2071730;28;20030;-71
2022/11/08 01:07:44;;;;;;;5.60;2.00;;;14.00;99.90;;;;;;2071512;28;20025;-71
2022/11/08 01:08:45;;;;;;;5.07;2.47;;;14.00;99.90;;;;;;2070922;28;20034;-71
2022/11/08 01:09:46;;;;;;;8.57;2.63;;;14.00;99.90;;;;;;2071452;28;20497;-72
2022/11/08 01:10:50;;;;;;;5.38;2.20;;;14.00;99.90;;;;;;2069946;28;20416;-72
2022/11/08 01:11:51;;;;;;;10.35;2.78;;;14.00;99.90;;;;;;2069618;28;20081;-72
2022/11/08 01:12:51;;;;;;;8.30;2.25;;;14.00;99.90;;;;;;2069203;28;20158;-72
2022/11/08 01:13:56;;;;;;;10.35;2.42;;;14.00;99.90;;;;;;2068412;28;20440;-71
2022/11/08 01:14:56;;;;;;;7.63;2.10;;;14.10;99.90;;;;;;2071403;28;20164;-72
2022/11/08 01:15:57;;;;;;;4.50;1.90;;;14.10;99.90;;;;;;2070273;28;20108;-72
2022/11/08 01:16:57;;;;;;;6.47;2.42;;;14.10;99.90;;;;;;2068651;28;20128;-71
2022/11/08 01:17:58;;;;;;;7.72;2.58;;;14.10;99.90;;;;;;2071909;28;20121;-71
2022/11/08 01:18:59;;;;;;;10.25;2.17;;;14.10;99.90;;;;;;2069371;28;20097;-71
2022/11/08 01:19:59;;;;;;;6.85;2.13;;;14.10;99.90;;;;;;2070333;28;20033;-72
2022/11/08 01:21:01;;;;;;;7.43;2.33;;;14.20;99.90;;;;;;2074064;28;20549;-72
2022/11/08 01:22:02;;;;;;;7.28;2.25;;;14.20;99.90;;;;;;2070777;28;20034;-72
2022/11/08 01:23:02;;;;;;;6.22;2.53;;;14.20;99.90;;;;;;2071443;28;20033;-71
2022/11/08 01:24:03;;;;;;;8.70;2.25;;;14.20;99.90;;;;;;2072848;28;20441;-72
2022/11/08 01:25:04;;;;;;;7.13;2.10;;;14.20;99.90;;;;;;2070102;28;20021;-72
2022/11/08 01:26:12;;;;;;;7.40;2.42;;;14.20;99.90;;;;;;2070056;28;20113;-72
2022/11/08 01:27:12;;;;;;;6.15;2.05;;;14.20;99.90;;;;;;2071828;28;20087;-72
2022/11/08 01:28:13;;;;;;;6.15;2.38;;;14.20;99.90;;;;;;2070507;28;20030;-72
2022/11/08 01:29:13;;;;;;;7.05;2.17;;;14.20;99.90;;;;;;2070440;28;20533;-72
2022/11/08 01:30:14;;;;;;;6.53;2.33;;;14.20;99.90;;;;;;2070995;28;20482;-72
2022/11/08 01:31:18;;;;;;;7.25;2.30;;;14.20;99.90;;;;;;2068188;28;20038;-72
2022/11/08 01:32:19;;;;;;;7.18;1.90;;;14.20;99.90;;;;;;2072956;28;20030;-72
2022/11/08 01:33:19;;;;;;;7.15;2.53;;;14.20;99.90;;;;;;2070864;28;20110;-72
2022/11/08 01:34:20;;;;;;;5.00;2.45;;;14.20;99.90;;;;;;2070693;28;20036;-72
2022/11/08 01:35:20;;;;;;;9.57;2.38;;;14.20;99.90;;;;;;2070568;28;20121;-72
2022/11/08 01:36:23;;;;;;;3.65;1.83;;;14.20;99.90;;;;;;2071328;28;20056;-72
2022/11/08 01:37:23;;;;;;;5.63;2.08;;;14.20;99.90;;;;;;2071280;28;20060;-72
2022/11/08 01:38:26;;;;;;;6.70;2.03;;;14.20;99.90;;;;;;2070660;28;20489;-72
2022/11/08 01:39:26;;;;;;;8.93;2.25;;;14.20;99.90;;;;;;2069107;28;20402;-72
2022/11/08 01:40:28;;;;;;;9.93;2.20;;;14.20;99.90;;;;;;2070538;28;20125;-72
2022/11/08 01:41:28;;;;;;;6.10;1.98;;;14.20;99.90;;;;;;2070987;28;20018;-72
2022/11/08 01:42:31;;;;;;;5.50;1.83;;;14.20;99.90;;;;;;2068730;28;20030;-72
2022/11/08 01:43:49;;;;;;;5.38;2.00;;;14.30;99.90;;;;;;2070237;28;20474;-72
2022/11/08 01:45:36;;;;;;;6.25;1.95;;;14.20;99.90;;;;;;2070248;28;20038;-72
2022/11/08 01:46:43;;;;;;;6.18;2.25;;;14.20;99.90;;;;;;2069498;28;20095;-72
2022/11/08 01:47:43;;;;;;;6.47;2.35;;;14.20;99.90;;;;;;2071013;28;20036;-72
2022/11/08 01:49:05;;;;;;;6.38;2.00;;;14.20;99.90;;;;;;2070599;28;20033;-72
2022/11/08 01:50:08;;;;;;;7.38;2.00;;;14.20;99.90;;;;;;2068759;28;20517;-72
2022/11/08 01:51:12;;;;;;;7.03;1.88;;;14.20;99.90;;;;;;2070235;28;20044;-72
2022/11/08 01:52:21;;;;;;;7.57;2.70;;;14.20;99.90;;;;;;2070890;28;20029;-72
2022/11/08 01:53:24;;;;;;;5.07;1.80;;;14.20;99.90;;;;;;2070660;28;20022;-72
2022/11/08 01:54:37;;;;;;;6.97;2.10;;;14.30;99.90;;;;;;2070905;28;20061;-72
2022/11/08 01:55:38;;;;;;;6.03;1.92;;;14.30;99.90;;;;;;2068863;28;20740;-72
2022/11/08 01:56:39;;;;;;;5.20;1.63;;;14.30;99.90;;;;;;2068435;28;20034;-72
2022/11/08 01:57:46;;;;;;;6.50;2.08;;;14.30;99.90;;;;;;2071595;28;20054;-72
2022/11/08 01:58:50;;;;;;;5.47;1.90;;;14.30;99.90;;;;;;2069681;28;20037;-72
2022/11/08 01:59:53;;;;;;;7.53;1.75;;;14.30;99.90;;;;;;2069259;28;20049;-72
2022/11/08 02:00:56;;;;;;;6.03;2.20;;;14.40;99.90;;;;;;2068519;28;20454;-71
2022/11/08 02:01:57;;;;;;;4.35;1.80;;;14.30;99.90;;;;;;2069350;28;20041;-71
2022/11/08 02:03:00;;;;;;;6.15;1.77;;;14.30;99.90;;;;;;2072134;28;20029;-71
2022/11/08 02:04:02;;;;;;;10.43;1.75;;;14.40;99.90;;;;;;2068167;28;20034;-71
2022/11/08 02:05:05;;;;;;;5.55;1.80;;;14.40;99.90;;;;;;2070725;28;20474;-71
2022/11/08 02:06:06;;;;;;;5.82;1.70;;;14.40;99.90;;;;;;2069736;28;20037;-71
2022/11/08 02:07:09;;;;;;;7.00;1.92;;;14.40;99.90;;;;;;2078577;28;20025;-71
2022/11/08 02:08:28;;;;;;;4.20;1.77;;;14.40;99.90;;;;;;2077766;28;20045;-71
2022/11/08 02:09:30;;;;;;;6.65;1.70;;;14.40;99.90;;;;;;2070523;28;20113;-71
2022/11/08 02:10:39;;;;;;;5.95;2.20;;;14.40;99.90;;;;;;2071860;28;20022;-71
2022/11/08 02:11:40;;;;;;;4.25;1.85;;;14.40;99.90;;;;;;2070221;28;20778;-71
2022/11/08 02:12:42;;;;;;;6.28;1.85;;;14.40;99.90;;;;;;2067904;28;20109;-71
2022/11/08 02:13:42;;;;;;;6.80;1.60;;;14.50;99.90;;;;;;2070171;28;20393;-71
2022/11/08 02:14:43;;;;;;;4.93;1.63;;;14.50;99.90;;;;;;2071383;28;20113;-71
2022/11/08 02:15:43;;;;;;;7.30;2.03;;;14.50;99.90;;;;;;2070230;28;20121;-71
2022/11/08 02:16:44;;;;;;;5.72;1.50;;;14.50;99.90;;;;;;2068972;28;20033;-71
2022/11/08 02:17:45;;;;;;;7.03;2.35;;;14.50;99.90;;;;;;2070613;28;20696;-71
2022/11/08 02:18:47;;;;;;;4.88;1.92;;;14.50;99.90;;;;;;2069455;28;20031;-71
2022/11/08 02:19:49;;;;;;;2.90;1.63;;;14.50;99.90;;;;;;2069079;28;20029;-71
2022/11/08 02:21:35;;;;;;;4.90;1.67;;;14.60;99.90;;;;;;2070570;28;20685;-71
2022/11/08 02:22:44;;;;;;;8.20;2.13;;;14.50;99.90;;;;;;2065385;28;20041;-71
2022/11/08 02:23:57;;;;;;;5.00;1.90;;;14.50;99.90;;;;;;2071189;28;20126;-71
2022/11/08 02:24:59;;;;;;;6.68;2.35;;;14.60;99.90;;;;;;2070529;28;20061;-71
2022/11/08 02:25:59;;;;;;;6.30;2.10;;;14.60;99.90;;;;;;2069349;28;20029;-71
2022/11/08 02:27:00;;;;;;;5.25;1.85;;;14.60;99.90;;;;;;2070481;28;20137;-71
2022/11/08 02:28:01;;;;;;;3.92;1.50;;;14.60;99.90;;;;;;2070385;28;20032;-71
2022/11/08 02:29:25;;;;;;;7.68;1.77;;;14.60;99.90;;;;;;2070106;28;20553;-71
2022/11/08 02:30:37;;;;;;;4.40;1.52;;;14.60;99.90;;;;;;2068928;28;20494;-71
2022/11/08 02:31:37;;;;;;;6.93;1.90;;;14.60;99.90;;;;;;2071288;28;20053;-71
2022/11/08 02:32:41;;;;;;;4.78;2.25;;;14.60;99.90;;;;;;2069747;28;20099;-71
2022/11/08 02:33:42;;;;;;;3.53;1.63;;;14.60;99.90;;;;;;2067895;28;20049;-71
2022/11/08 02:34:57;;;;;;;3.97;1.77;;;14.60;99.90;;;;;;2068501;28;20128;-71
2022/11/08 02:35:57;;;;;;;4.97;1.45;;;14.70;99.90;;;;;;2068715;28;20290;-71
2022/11/08 02:37:00;;;;;;;7.68;1.85;;;14.70;99.90;;;;;;2070927;28;20087;-71
2022/11/08 02:38:01;;;;;;;5.53;1.77;;;14.70;99.90;;;;;;2069894;28;20421;-71
2022/11/08 02:39:01;;;;;;;5.65;1.65;;;14.70;99.90;;;;;;2070381;28;20030;-71
2022/11/08 02:40:03;;;;;;;10.20;2.00;;;14.70;99.90;;;;;;2069279;28;20102;-71
2022/11/08 02:41:04;;;;;;;7.40;2.17;;;14.70;99.90;;;;;;2069488;28;20037;-71
2022/11/08 02:42:05;;;;;;;3.78;1.50;;;14.80;99.90;;;;;;2069192;28;20065;-71
2022/11/08 02:43:05;;;;;;;5.80;2.00;;;14.70;99.90;;;;;;2070222;28;20385;-71
2022/11/08 02:44:06;;;;;;;5.22;2.22;;;14.70;99.90;;;;;;2071503;28;20026;-71
2022/11/08 02:45:07;;;;;;;6.20;1.90;;;14.70;99.90;;;;;;2068657;28;20061;-71
2022/11/08 02:46:07;;;;;;;8.70;2.25;;;14.70;99.90;;;;;;2069499;28;20030;-71
2022/11/08 02:47:08;;;;;;;6.95;1.98;;;14.70;99.90;;;;;;2069849;28;20565;-71
2022/11/08 02:48:08;;;;;;;4.72;1.45;;;14.70;99.90;;;;;;2069360;28;20394;-71
2022/11/08 02:49:10;;;;;;;7.60;2.13;;;14.70;99.90;;;;;;2070495;28;20100;-71
2022/11/08 02:50:10;;;;;;;6.60;2.08;;;14.70;99.90;;;;;;2069930;28;20038;-71
2022/11/08 02:51:11;;;;;;;2.95;1.50;;;14.70;99.90;;;;;;2069850;28;20145;-71
2022/11/08 02:52:12;;;;;;;5.82;1.95;;;14.70;99.90;;;;;;2070051;28;20785;-71
2022/11/08 02:53:12;;;;;;;5.28;1.80;;;14.70;99.90;;;;;;2070839;28;20118;-71
2022/11/08 02:54:13;;;;;;;6.93;2.13;;;14.70;99.90;;;;;;2070802;28;20604;-71
2022/11/08 02:55:13;;;;;;;3.85;1.80;;;14.70;99.90;;;;;;2070812;28;20037;-71
2022/11/08 02:56:14;;;;;;;4.90;1.80;;;14.70;99.90;;;;;;2069573;28;20413;-71
2022/11/08 02:57:14;;;;;;;6.50;2.00;;;14.60;99.90;;;;;;2069537;28;20026;-71
2022/11/08 02:58:15;;;;;;;3.83;1.58;;;14.60;99.90;;;;;;2069726;28;20037;-71
2022/11/08 02:59:16;;;;;;;5.32;2.10;;;14.60;99.90;;;;;;2070420;28;20414;-71
2022/11/08 03:00:16;;;;;;;4.15;1.73;;;14.60;99.90;;;;;;2071425;28;20125;-71
2022/11/08 03:01:17;;;;;;;6.45;2.30;;;14.60;99.90;;;;;;2070660;28;20046;-71
2022/11/08 03:02:17;;;;;;;6.03;1.95;;;14.60;99.90;;;;;;2069352;28;20522;-71
2022/11/08 03:03:18;;;;;;;4.57;1.95;;;14.60;99.90;;;;;;2069322;28;20048;-71
2022/11/08 03:04:18;;;;;;;5.50;1.50;;;14.60;99.90;;;;;;2068016;28;20030;-71
2022/11/08 03:05:20;;;;;;;4.40;1.75;;;14.60;99.90;;;;;;2070462;28;20030;-71
2022/11/08 03:06:20;;;;;;;5.60;2.17;;;14.50;99.90;;;;;;2069727;28;20049;-71
2022/11/08 03:07:21;;;;;;;4.60;1.70;;;14.50;99.90;;;;;;2069983;28;20113;-71
2022/11/08 03:08:22;;;;;;;5.93;1.98;;;14.50;99.90;;;;;;2070614;28;20026;-71
2022/11/08 03:09:22;;;;;;;3.58;1.60;;;14.40;99.90;;;;;;2070941;28;20084;-71
2022/11/08 03:10:26;;;;;;;3.70;1.50;;;14.50;99.90;;;;;;2069579;28;20057;-71
2022/11/08 03:11:27;;;;;;;5.30;1.50;;;14.50;99.90;;;;;;2068382;28;20030;-71
2022/11/08 03:12:27;;;;;;;4.53;1.75;;;14.40;99.90;;;;;;2071948;28;20120;-71
2022/11/08 03:13:28;;;;;;;4.90;1.90;;;14.40;99.90;;;;;;2071121;28;20034;-71
2022/11/08 03:14:28;;;;;;;4.35;1.75;;;14.40;99.90;;;;;;2071291;28;20021;-71
2022/11/08 03:15:29;;;;;;;6.18;1.80;;;14.30;99.90;;;;;;2069242;28;20026;-71
2022/11/08 03:16:30;;;;;;;4.28;1.90;;;14.30;99.90;;;;;;2069035;28;20022;-71
2022/11/08 03:17:30;;;;;;;4.78;1.92;;;14.30;99.90;;;;;;2070959;28;20061;-71
2022/11/08 03:18:31;;;;;;;4.93;1.70;;;14.30;99.90;;;;;;2070184;28;20540;-71
2022/11/08 03:19:31;;;;;;;4.45;1.90;;;14.30;99.90;;;;;;2070539;28;20025;-71
2022/11/08 03:20:32;;;;;;;5.53;1.98;;;14.20;99.90;;;;;;2068599;28;20057;-71
2022/11/08 03:21:34;;;;;;;6.82;1.73;;;14.20;99.90;;;;;;2069406;28;20640;-71
2022/11/08 03:22:35;;;;;;;3.90;1.90;;;14.20;99.90;;;;;;2070127;28;20056;-71
2022/11/08 03:23:36;;;;;;;5.53;1.88;;;14.20;99.90;;;;;;2070111;28;20026;-71
2022/11/08 03:24:36;;;;;;;5.75;1.88;;;14.20;99.90;;;;;;2070042;28;20079;-71
2022/11/08 03:25:37;;;;;;;2.75;1.60;;;14.10;99.90;;;;;;2070904;28;20085;-71
2022/11/08 03:26:37;;;;;;;4.90;1.73;;;14.10;99.90;;;;;;2070032;28;20034;-71
2022/11/08 03:27:38;;;;;;;3.95;1.48;;;14.10;99.90;;;;;;2070769;28;20100;-71
2022/11/08 03:28:38;;;;;;;5.85;2.00;;;14.10;99.90;;;;;;2070340;28;20021;-71
2022/11/08 03:29:39;;;;;;;4.45;1.73;;;14.10;99.90;;;;;;2068234;28;20026;-71
2022/11/08 03:30:39;;;;;;;3.20;1.60;;;14.10;99.90;;;;;;2074939;28;20029;-71
2022/11/08 03:31:40;;;;;;;4.38;1.75;;;14.00;99.90;;;;;;2074841;28;20021;-71
2022/11/08 03:32:43;;;;;;;4.72;1.45;;;14.00;99.90;;;;;;2070975;28;20060;-71
2022/11/08 03:33:43;;;;;;;4.65;1.90;;;14.00;99.90;;;;;;2068921;28;20041;-71
2022/11/08 03:34:43;;;;;;;3.20;1.55;;;14.00;99.90;;;;;;2069453;28;20030;-71
2022/11/08 03:35:44;;;;;;;5.70;2.05;;;13.90;99.90;;;;;;2070046;28;20026;-71
2022/11/08 03:36:45;;;;;;;6.75;2.08;;;13.90;99.90;;;;;;2069365;28;20018;-71
2022/11/08 03:37:53;;;;;;;4.60;1.90;;;13.90;99.90;;;;;;2070516;28;20045;-71
2022/11/08 03:38:53;;;;;;;3.28;1.42;;;13.90;99.90;;;;;;2069797;28;20453;-71
2022/11/08 03:39:54;;;;;;;5.72;2.03;;;13.80;99.90;;;;;;2069736;28;20444;-71
2022/11/08 03:40:55;;;;;;;4.32;1.85;;;13.80;99.90;;;;;;2071012;28;20160;-71
2022/11/08 03:41:55;;;;;;;4.72;1.60;;;13.80;99.90;;;;;;2069513;28;20072;-71
2022/11/08 03:42:56;;;;;;;4.88;1.42;;;13.80;99.90;;;;;;2070351;28;20505;-71
2022/11/08 03:43:57;;;;;;;5.90;2.10;;;13.80;99.90;;;;;;2069189;28;20808;-71
2022/11/08 03:44:57;;;;;;;3.95;1.95;;;13.80;99.90;;;;;;2070003;28;20081;-71
2022/11/08 03:45:58;;;;;;;5.97;1.75;;;13.70;99.90;;;;;;2069820;28;20033;-71
2022/11/08 03:46:59;;;;;;;4.10;1.60;;;13.70;99.90;;;;;;2069297;28;20022;-71
2022/11/08 03:48:00;;;;;;;5.15;2.22;;;13.70;99.90;;;;;;2070365;28;20037;-71
2022/11/08 03:49:00;;;;;;;3.70;1.67;;;13.70;99.90;;;;;;2068195;28;20034;-71
2022/11/08 03:50:01;;;;;;;5.72;1.55;;;13.70;99.90;;;;;;2068674;28;20084;-71
2022/11/08 03:51:01;;;;;;;5.80;2.13;;;13.70;99.90;;;;;;2070656;28;20025;-71
2022/11/08 03:52:02;;;;;;;3.67;1.60;;;13.70;99.90;;;;;;2068597;28;20775;-71
2022/11/08 03:53:02;;;;;;;6.07;1.90;;;13.70;99.90;;;;;;2069038;28;20042;-71
2022/11/08 03:54:03;;;;;;;3.97;1.63;;;13.70;99.90;;;;;;2069837;28;20026;-71
2022/11/08 03:55:04;;;;;;;4.90;1.65;;;13.70;99.90;;;;;;2068823;28;20031;-71
2022/11/08 03:56:05;;;;;;;3.30;1.63;;;13.70;99.90;;;;;;2067020;28;20041;-71
2022/11/08 03:57:05;;;;;;;3.30;1.75;;;13.70;99.90;;;;;;2069148;28;20468;-71
2022/11/08 03:58:06;;;;;;;3.42;1.55;;;13.70;99.90;;;;;;2070087;28;20037;-71
2022/11/08 03:59:07;;;;;;;5.85;1.90;;;13.70;99.90;;;;;;2069029;28;20474;-71
2022/11/08 04:00:10;;;;;;;3.95;1.77;;;13.70;99.90;;;;;;2070091;28;20115;-71
2022/11/08 04:01:11;;;;;;;4.05;1.70;;;13.70;99.90;;;;;;2068803;28;20107;-71
2022/11/08 04:02:11;;;;;;;5.70;1.98;;;13.70;99.90;;;;;;2069562;28;20025;-71
2022/11/08 04:03:12;;;;;;;4.70;1.90;;;13.60;99.90;;;;;;2069049;28;20061;-71
2022/11/08 04:04:12;;;;;;;4.95;1.65;;;13.60;99.90;;;;;;2070014;28;20025;-71
2022/11/08 04:05:14;;;;;;;5.90;1.77;;;13.70;99.90;;;;;;2070515;28;20028;-71
2022/11/08 04:06:15;;;;;;;5.25;1.70;;;13.60;99.90;;;;;;2068136;28;20029;-71
2022/11/08 04:07:15;;;;;;;5.72;1.85;;;13.60;99.90;;;;;;2070276;28;20053;-71
2022/11/08 04:08:16;;;;;;;6.65;1.70;;;13.60;99.90;;;;;;2070087;28;20045;-71
2022/11/08 04:09:16;;;;;;;4.68;1.77;;;13.60;99.90;;;;;;2071090;28;20068;-71
2022/11/08 04:10:17;;;;;;;4.97;1.85;;;13.60;99.90;;;;;;2069982;28;20741;-71
2022/11/08 04:15:21;;;;;;;7.43;2.00;;;13.50;99.90;;;;;;2070406;28;20440;-71
2022/11/08 04:16:21;;;;;;;4.18;1.45;;;13.50;99.90;;;;;;2071001;28;20394;-71
2022/11/08 04:21:17;;;;;;;3.10;1.52;;;13.50;99.90;;;;;;2069437;28;20026;-71
2022/11/08 04:21:21;;;;;;;5.47;2.08;;;13.40;99.90;;;;;;2070858;28;20026;-71
2022/11/08 04:22:21;;;;;;;3.45;1.77;;;13.40;99.90;;;;;;2069987;28;20112;-71
2022/11/08 04:23:22;;;;;;;5.22;1.75;;;13.40;99.90;;;;;;2067960;28;20478;-71
2022/11/08 04:24:22;;;;;;;3.70;1.73;;;13.40;99.90;;;;;;2069609;28;20026;-71
2022/11/08 04:25:23;;;;;;;7.22;2.13;;;13.40;99.90;;;;;;2069691;28;20084;-71
2022/11/08 04:26:23;;;;;;;4.22;1.60;;;13.40;99.90;;;;;;2070399;28;20441;-71
2022/11/08 04:27:24;;;;;;;3.75;1.70;;;13.40;99.90;;;;;;2070487;28;20117;-71
2022/11/08 04:28:35;;;;;;;5.75;2.25;;;13.40;99.90;;;;;;2069791;28;20071;-71
2022/11/08 04:29:36;;;;;;;3.53;1.95;;;13.50;99.90;;;;;;2069988;28;20513;-71
2022/11/08 04:30:37;;;;;;;4.20;1.58;;;13.40;99.90;;;;;;2070836;28;20381;-71
2022/11/08 04:31:38;;;;;;;7.15;1.98;;;13.40;99.90;;;;;;2069998;28;20028;-71
2022/11/08 04:32:39;;;;;;;5.50;2.05;;;13.40;99.90;;;;;;2070440;28;20169;-71
2022/11/08 04:33:40;;;;;;;5.60;2.05;;;13.40;99.90;;;;;;2067750;28;20026;-71
2022/11/08 04:34:40;;;;;;;6.95;1.90;;;13.40;99.90;;;;;;2067086;28;20022;-71
2022/11/08 04:35:41;;;;;;;3.97;2.10;;;13.40;99.90;;;;;;2066523;28;20027;-71
2022/11/08 04:36:41;;;;;;;6.18;2.47;;;13.40;99.90;;;;;;2070967;28;20037;-71
2022/11/08 04:37:42;;;;;;;4.97;1.92;;;13.40;99.90;;;;;;2068125;28;20025;-71
2022/11/08 04:38:46;;;;;;;6.07;1.75;;;13.40;99.90;;;;;;2070659;28;20033;-71
2022/11/08 04:39:46;;;;;;;5.63;2.00;;;13.40;99.90;;;;;;2068948;28;20148;-71
2022/11/08 04:40:47;;;;;;;4.47;1.67;;;13.40;99.90;;;;;;2068783;28;20088;-71
2022/11/08 04:41:47;;;;;;;6.25;2.05;;;13.40;99.90;;;;;;2069415;28;20112;-71
2022/11/08 04:42:48;;;;;;;3.20;1.73;;;13.40;99.90;;;;;;2069234;28;20400;-71
2022/11/08 04:43:50;;;;;;;2.85;1.48;;;13.40;99.90;;;;;;2070194;28;20363;-71
2022/11/08 04:44:50;;;;;;;3.67;2.00;;;13.40;99.90;;;;;;2071134;28;20084;-71
2022/11/08 04:45:51;;;;;;;4.40;1.52;;;13.40;99.90;;;;;;2070003;28;20057;-71
2022/11/08 04:46:51;;;;;;;4.38;1.98;;;13.40;99.90;;;;;;2069645;28;20026;-71
2022/11/08 04:47:52;;;;;;;5.00;2.17;;;13.40;99.90;;;;;;2069536;28;20100;-71
2022/11/08 04:48:55;;;;;;;5.05;1.90;;;13.40;99.90;;;;;;2070160;28;20026;-71
2022/11/08 04:49:55;;;;;;;5.47;2.15;;;13.40;99.90;;;;;;2068081;28;20022;-71
2022/11/08 04:51:02;;;;;;;8.85;2.00;;;13.30;99.90;;;;;;2068918;28;20037;-71
2022/11/08 04:52:02;;;;;;;7.93;2.20;;;13.40;99.90;;;;;;2069388;28;20018;-71
2022/11/08 04:53:03;;;;;;;3.30;1.80;;;13.30;99.90;;;;;;2069532;28;20034;-71
2022/11/08 04:54:06;;;;;;;4.80;1.70;;;13.30;99.90;;;;;;2068699;28;20829;-71
2022/11/08 04:55:07;;;;;;;3.47;1.40;;;13.30;99.90;;;;;;2069700;28;20030;-71
2022/11/08 04:56:10;;;;;;;5.40;2.20;;;13.30;99.90;;;;;;2068741;28;20076;-71
2022/11/08 04:57:11;;;;;;;5.57;2.13;;;13.30;99.90;;;;;;2070634;28;20037;-71
2022/11/08 04:58:12;;;;;;;9.10;2.13;;;13.30;99.90;;;;;;2069358;28;20061;-71
2022/11/08 04:59:12;;;;;;;4.10;1.77;;;13.30;99.90;;;;;;2069466;28;20022;-71
2022/11/08 05:00:14;;;;;;;6.65;1.95;;;13.30;99.90;;;;;;2069134;28;20038;-71
2022/11/08 05:01:21;;;;;;;4.97;2.17;;;13.20;99.90;;;;;;2070343;28;20034;-71
2022/11/08 05:02:21;;;;;;;5.18;1.73;;;13.20;99.90;;;;;;2068941;28;20033;-71
2022/11/08 05:03:22;;;;;;;6.78;1.92;;;13.20;99.90;;;;;;2068203;28;20489;-71
2022/11/08 05:04:22;;;;;;;9.13;2.33;;;13.20;99.90;;;;;;2070468;28;20028;-71
2022/11/08 05:05:23;;;;;;;7.18;2.40;;;13.20;99.90;;;;;;2068309;28;20041;-71
2022/11/08 05:06:28;;;;;;;3.90;1.83;;;13.20;99.90;;;;;;2067452;28;20022;-71
2022/11/08 05:07:29;;;;;;;5.93;2.03;;;13.20;99.90;;;;;;2069900;28;20026;-71
2022/11/08 05:08:30;;;;;;;6.28;2.20;;;13.20;99.90;;;;;;2069522;28;20032;-71
2022/11/08 05:09:30;;;;;;;3.40;1.58;;;13.20;99.90;;;;;;2069208;28;20034;-71
2022/11/08 05:10:31;;;;;;;7.40;1.95;;;13.20;99.90;;;;;;2070522;28;20026;-71
2022/11/08 05:11:31;;;;;;;4.15;1.48;;;13.10;99.90;;;;;;2070231;28;20049;-71
2022/11/08 05:12:32;;;;;;;4.57;1.95;;;13.20;99.90;;;;;;2070348;28;20053;-71
2022/11/08 05:13:33;;;;;;;4.55;1.63;;;13.10;99.90;;;;;;2067173;28;20105;-71
2022/11/08 05:14:34;;;;;;;4.13;1.60;;;13.10;99.90;;;;;;2069400;28;20017;-71
2022/11/08 05:15:35;;;;;;;4.93;1.77;;;13.20;99.90;;;;;;2070152;28;20112;-71
2022/11/08 05:16:35;;;;;;;7.40;1.98;;;13.10;99.90;;;;;;2067113;28;21582;-71
2022/11/08 05:17:36;;;;;;;4.18;1.77;;;13.10;99.90;;;;;;2069423;28;20105;-71
2022/11/08 05:18:37;;;;;;;4.25;1.40;;;13.10;99.90;;;;;;2070172;28;20024;-71
2022/11/08 05:23:36;;;;;;;6.47;1.90;;;13.10;99.90;;;;;;2071625;28;20037;-71
2022/11/08 05:24:37;;;;;;;6.20;1.60;;;13.00;99.90;;;;;;2070891;28;20494;-71
2022/11/08 05:25:39;;;;;;;7.85;2.05;;;13.10;99.90;;;;;;2069253;28;20060;-71
2022/11/08 05:26:41;;;;;;;4.25;1.88;;;13.10;99.90;;;;;;2073805;28;20027;-71
2022/11/08 05:27:42;;;;;;;5.05;1.83;;;13.10;99.90;;;;;;2070222;28;20030;-71
2022/11/08 05:28:42;;;;;;;6.85;1.70;;;13.10;99.90;;;;;;2069754;28;20049;-71
2022/11/08 05:29:43;;;;;;;5.88;1.67;;;13.10;99.90;;;;;;2070495;28;20030;-71
2022/11/08 05:30:43;;;;;;;7.72;2.60;;;13.10;99.90;;;;;;2070504;28;20120;-71
2022/11/08 05:31:44;;;;;;;5.43;1.88;;;13.10;99.90;;;;;;2070290;28;20030;-71
2022/11/08 05:32:44;;;;;;;4.75;1.77;;;13.10;99.90;;;;;;2069507;28;20636;-71
2022/11/08 05:33:45;;;;;;;4.88;1.67;;;13.10;99.90;;;;;;2070435;28;20030;-71
2022/11/08 05:34:46;;;;;;;4.82;1.80;;;13.10;99.90;;;;;;2069711;28;20034;-71
2022/11/08 05:35:47;;;;;;;4.05;1.70;;;13.00;99.90;;;;;;2070176;28;20034;-71
2022/11/08 05:36:47;;;;;;;3.72;1.80;;;13.00;99.90;;;;;;2069819;28;20033;-71
2022/11/08 05:37:48;;;;;;;4.78;1.88;;;13.00;99.90;;;;;;2077576;28;20079;-71
2022/11/08 05:38:48;;;;;;;3.53;1.60;;;13.00;99.90;;;;;;2070150;28;20132;-71
2022/11/08 05:39:49;;;;;;;3.17;1.48;;;13.00;99.90;;;;;;2071867;28;20674;-71
2022/11/08 05:40:49;;;;;;;4.03;1.95;;;13.00;99.90;;;;;;2070766;28;20056;-71
2022/11/08 05:41:50;;;;;;;3.47;1.80;;;13.00;99.90;;;;;;2070480;28;20101;-71